Terminal Aerodrome Forecast
Issued by NWS

Home | Current Version | Previous Version | Graphics & Text | Print | Product List | Glossary On
Versions: 1 2 3 4 5 6 7 8 9 10 11 12 13 14 15 16 17
172
FTUS43 KDLH 240520
TAFHYR
TAF
KHYR 240520Z 2406/2506 34010G19KT P6SM VCSH OVC022
     FM240900 34014G25KT P6SM VCSH OVC015
     FM241400 34015G28KT P6SM VCSH OVC015
     FM241900 34014G32KT P6SM BKN045
     FM242200 33012G18KT P6SM SCT090
     FM250100 31008KT P6SM SCT150=

USA.gov is the U.S. government's official web portal to all federal, state and local government web resources and services.